sensor_id;sensor_type;location;lat;lon;timestamp;pressure;altitude;pressure_sealevel;temperature;humidity
20656;BME280;10487;53.320;8.672;2023-07-31T00:00:26;100566.56;;;14.38;58.59
20656;BME280;10487;53.320;8.672;2023-07-31T00:03:28;100552.28;;;14.37;58.67
20656;BME280;10487;53.320;8.672;2023-07-31T00:06:29;100554.16;;;14.37;58.65
20656;BME280;10487;53.320;8.672;2023-07-31T00:09:31;100543.41;;;14.37;58.45
20656;BME280;10487;53.320;8.672;2023-07-31T00:12:33;100554.84;;;14.39;58.65
20656;BME280;10487;53.320;8.672;2023-07-31T00:15:34;100559.22;;;14.40;58.61
20656;BME280;10487;53.320;8.672;2023-07-31T00:18:36;100550.34;;;14.40;58.59
20656;BME280;10487;53.320;8.672;2023-07-31T00:21:38;100544.97;;;14.40;58.78
20656;BME280;10487;53.320;8.672;2023-07-31T00:24:40;100550.47;;;14.38;58.72
20656;BME280;10487;53.320;8.672;2023-07-31T00:27:41;100542.41;;;14.38;58.70
20656;BME280;10487;53.320;8.672;2023-07-31T00:30:45;100542.41;;;14.38;58.69
20656;BME280;10487;53.320;8.672;2023-07-31T00:33:47;100539.88;;;14.36;58.67
20656;BME280;10487;53.320;8.672;2023-07-31T00:36:49;100541.69;;;14.36;58.61
20656;BME280;10487;53.320;8.672;2023-07-31T00:39:51;100533.78;;;14.34;58.82
20656;BME280;10487;53.320;8.672;2023-07-31T00:42:53;100530.41;;;14.32;58.68
20656;BME280;10487;53.320;8.672;2023-07-31T00:45:54;100533.19;;;14.31;58.80
20656;BME280;10487;53.320;8.672;2023-07-31T00:48:57;100527.13;;;14.29;58.67
20656;BME280;10487;53.320;8.672;2023-07-31T00:51:59;100530.69;;;14.29;58.83
20656;BME280;10487;53.320;8.672;2023-07-31T00:55:01;100527.13;;;14.29;58.74
20656;BME280;10487;53.320;8.672;2023-07-31T00:58:03;100534.50;;;14.27;58.77
20656;BME280;10487;53.320;8.672;2023-07-31T01:01:04;100530.94;;;14.26;58.88
20656;BME280;10487;53.320;8.672;2023-07-31T01:04:06;100526.44;;;14.27;58.91
20656;BME280;10487;53.320;8.672;2023-07-31T01:10:51;100510.19;;;14.28;58.92
20656;BME280;10487;53.320;8.672;2023-07-31T01:13:56;100514.84;;;14.26;58.76
20656;BME280;10487;53.320;8.672;2023-07-31T01:16:58;100514.00;;;14.26;58.89
20656;BME280;10487;53.320;8.672;2023-07-31T01:20:02;100523.88;;;14.25;58.77
20656;BME280;10487;53.320;8.672;2023-07-31T01:26:28;100519.53;;;14.24;59.09
20656;BME280;10487;53.320;8.672;2023-07-31T01:29:43;100516.84;;;14.24;59.12
20656;BME280;10487;53.320;8.672;2023-07-31T01:32:49;100511.47;;;14.24;59.06
20656;BME280;10487;53.320;8.672;2023-07-31T01:35:52;100505.25;;;14.24;58.89
20656;BME280;10487;53.320;8.672;2023-07-31T01:38:59;100497.19;;;14.24;59.12
20656;BME280;10487;53.320;8.672;2023-07-31T01:42:01;100501.59;;;14.25;59.21
20656;BME280;10487;53.320;8.672;2023-07-31T01:45:03;100498.06;;;14.24;58.99
20656;BME280;10487;53.320;8.672;2023-07-31T01:48:05;100489.84;;;14.26;59.02
20656;BME280;10487;53.320;8.672;2023-07-31T01:51:07;100495.22;;;14.26;59.06
20656;BME280;10487;53.320;8.672;2023-07-31T01:54:08;100487.03;;;14.27;59.06
20656;BME280;10487;53.320;8.672;2023-07-31T01:57:10;100479.81;;;14.28;59.05
20656;BME280;10487;53.320;8.672;2023-07-31T02:00:12;100471.91;;;14.26;58.99
20656;BME280;10487;53.320;8.672;2023-07-31T02:03:14;100473.75;;;14.26;59.18
20656;BME280;10487;53.320;8.672;2023-07-31T02:06:15;100467.53;;;14.25;59.21
20656;BME280;10487;53.320;8.672;2023-07-31T02:09:17;100463.88;;;14.26;59.08
20656;BME280;10487;53.320;8.672;2023-07-31T02:12:19;100452.28;;;14.26;59.16
20656;BME280;10487;53.320;8.672;2023-07-31T02:15:21;100447.91;;;14.25;59.31
20656;BME280;10487;53.320;8.672;2023-07-31T02:18:23;100447.06;;;14.24;59.02
20656;BME280;10487;53.320;8.672;2023-07-31T02:21:24;100451.59;;;14.24;59.18
20656;BME280;10487;53.320;8.672;2023-07-31T02:24:26;100456.94;;;14.24;59.25
20656;BME280;10487;53.320;8.672;2023-07-31T02:27:28;100457.09;;;14.22;59.13
20656;BME280;10487;53.320;8.672;2023-07-31T02:30:30;100458.22;;;14.20;59.26
20656;BME280;10487;53.320;8.672;2023-07-31T02:33:31;100459.06;;;14.20;59.13
20656;BME280;10487;53.320;8.672;2023-07-31T02:36:33;100461.03;;;14.18;59.30
20656;BME280;10487;53.320;8.672;2023-07-31T02:39:35;100463.72;;;14.18;59.13
20656;BME280;10487;53.320;8.672;2023-07-31T02:42:37;100450.47;;;14.17;59.18
20656;BME280;10487;53.320;8.672;2023-07-31T02:45:38;100456.81;;;14.16;59.38
20656;BME280;10487;53.320;8.672;2023-07-31T02:48:40;100448.91;;;14.14;59.20
20656;BME280;10487;53.320;8.672;2023-07-31T02:51:42;100450.91;;;14.12;59.35
20656;BME280;10487;53.320;8.672;2023-07-31T02:54:43;100452.84;;;14.10;59.26
20656;BME280;10487;53.320;8.672;2023-07-31T02:57:45;100453.28;;;14.06;59.44
20656;BME280;10487;53.320;8.672;2023-07-31T03:00:48;100443.69;;;14.03;59.38
20656;BME280;10487;53.320;8.672;2023-07-31T03:03:50;100436.66;;;14.02;59.48
20656;BME280;10487;53.320;8.672;2023-07-31T03:06:52;100436.78;;;14.01;59.34
20656;BME280;10487;53.320;8.672;2023-07-31T03:09:54;100434.41;;;13.98;59.48
20656;BME280;10487;53.320;8.672;2023-07-31T03:12:55;100435.53;;;13.95;59.52
20656;BME280;10487;53.320;8.672;2023-07-31T03:15:57;100443.16;;;13.90;59.54
20656;BME280;10487;53.320;8.672;2023-07-31T03:18:59;100431.00;;;13.86;59.44
20656;BME280;10487;53.320;8.672;2023-07-31T03:22:00;100432.00;;;13.85;59.64
20656;BME280;10487;53.320;8.672;2023-07-31T03:25:03;100431.16;;;13.85;59.47
20656;BME280;10487;53.320;8.672;2023-07-31T03:28:04;100426.91;;;13.82;59.78
20656;BME280;10487;53.320;8.672;2023-07-31T03:31:06;100425.19;;;13.81;59.52
20656;BME280;10487;53.320;8.672;2023-07-31T03:34:10;100427.19;;;13.79;59.57
20656;BME280;10487;53.320;8.672;2023-07-31T03:37:11;100428.31;;;13.77;59.84
20656;BME280;10487;53.320;8.672;2023-07-31T03:40:13;100424.94;;;13.74;59.83
20656;BME280;10487;53.320;8.672;2023-07-31T03:43:15;100426.75;;;13.74;59.97
20656;BME280;10487;53.320;8.672;2023-07-31T03:46:16;100422.25;;;13.74;60.01
20656;BME280;10487;53.320;8.672;2023-07-31T03:49:18;100425.91;;;13.73;59.90
20656;BME280;10487;53.320;8.672;2023-07-31T03:52:21;100418.72;;;13.74;59.82
20656;BME280;10487;53.320;8.672;2023-07-31T03:55:22;100424.94;;;13.74;60.07
20656;BME280;10487;53.320;8.672;2023-07-31T03:58:24;100425.34;;;13.70;59.70
20656;BME280;10487;53.320;8.672;2023-07-31T04:01:26;100412.06;;;13.68;60.02
20656;BME280;10487;53.320;8.672;2023-07-31T04:04:28;100412.94;;;13.79;60.13
20656;BME280;10487;53.320;8.672;2023-07-31T04:07:29;100410.09;;;13.99;60.39
20656;BME280;10487;53.320;8.672;2023-07-31T04:10:31;100415.19;;;14.02;60.12
20656;BME280;10487;53.320;8.672;2023-07-31T04:13:34;100409.09;;;14.10;60.25
20656;BME280;10487;53.320;8.672;2023-07-31T04:16:36;100406.13;;;14.13;60.14
20656;BME280;10487;53.320;8.672;2023-07-31T04:19:39;100405.41;;;14.11;60.10
20656;BME280;10487;53.320;8.672;2023-07-31T04:22:40;100400.47;;;14.06;60.06
20656;BME280;10487;53.320;8.672;2023-07-31T04:25:42;100396.09;;;14.05;60.08
20656;BME280;10487;53.320;8.672;2023-07-31T04:28:44;100400.78;;;14.03;60.16
20656;BME280;10487;53.320;8.672;2023-07-31T04:31:47;100394.69;;;14.01;60.23
20656;BME280;10487;53.320;8.672;2023-07-31T04:34:49;100398.09;;;14.03;60.20
20656;BME280;10487;53.320;8.672;2023-07-31T04:37:51;100401.47;;;14.05;60.21
20656;BME280;10487;53.320;8.672;2023-07-31T04:40:52;100399.09;;;14.02;60.30
20656;BME280;10487;53.320;8.672;2023-07-31T04:43:54;100399.38;;;13.99;60.38
20656;BME280;10487;53.320;8.672;2023-07-31T04:46:56;100395.28;;;13.95;60.12
20656;BME280;10487;53.320;8.672;2023-07-31T04:49:57;100396.56;;;13.91;60.21
20656;BME280;10487;53.320;8.672;2023-07-31T04:52:59;100390.50;;;13.89;60.38
20656;BME280;10487;53.320;8.672;2023-07-31T04:56:01;100393.44;;;13.86;60.18
20656;BME280;10487;53.320;8.672;2023-07-31T04:59:03;100390.06;;;13.84;60.37
20656;BME280;10487;53.320;8.672;2023-07-31T05:02:04;100386.53;;;13.84;60.36
20656;BME280;10487;53.320;8.672;2023-07-31T05:05:07;100386.53;;;13.84;60.36
20656;BME280;10487;53.320;8.672;2023-07-31T05:08:08;100384.84;;;13.83;60.29
20656;BME280;10487;53.320;8.672;2023-07-31T05:11:10;100384.84;;;13.83;60.29
20656;BME280;10487;53.320;8.672;2023-07-31T05:14:12;100376.09;;;13.81;60.23
20656;BME280;10487;53.320;8.672;2023-07-31T05:17:14;100377.09;;;13.80;60.32
20656;BME280;10487;53.320;8.672;2023-07-31T05:20:16;100379.78;;;13.80;60.22
20656;BME280;10487;53.320;8.672;2023-07-31T05:23:18;100376.38;;;13.87;60.72
20656;BME280;10487;53.320;8.672;2023-07-31T05:26:19;100363.38;;;13.92;60.69
20656;BME280;10487;53.320;8.672;2023-07-31T05:29:21;100364.66;;;13.98;60.54
20656;BME280;10487;53.320;8.672;2023-07-31T05:32:23;100380.44;;;14.01;60.33
20656;BME280;10487;53.320;8.672;2023-07-31T05:35:25;100376.94;;;14.00;60.27
20656;BME280;10487;53.320;8.672;2023-07-31T05:38:27;100375.94;;;14.01;60.42
20656;BME280;10487;53.320;8.672;2023-07-31T05:41:29;100354.19;;;14.04;60.28
20656;BME280;10487;53.320;8.672;2023-07-31T05:44:30;100354.88;;;14.06;60.45
20656;BME280;10487;53.320;8.672;2023-07-31T05:47:32;100351.22;;;14.07;60.51
20656;BME280;10487;53.320;8.672;2023-07-31T05:50:34;100343.00;;;14.09;60.45
20656;BME280;10487;53.320;8.672;2023-07-31T05:53:35;100342.03;;;14.10;60.50
20656;BME280;10487;53.320;8.672;2023-07-31T05:56:42;100339.91;;;14.13;60.65
20656;BME280;10487;53.320;8.672;2023-07-31T05:59:43;100351.31;;;14.15;60.48
20656;BME280;10487;53.320;8.672;2023-07-31T06:02:45;100342.00;;;14.19;60.79
20656;BME280;10487;53.320;8.672;2023-07-31T06:05:47;100343.97;;;14.27;60.83
20656;BME280;10487;53.320;8.672;2023-07-31T06:08:48;100345.63;;;14.37;60.89
20656;BME280;10487;53.320;8.672;2023-07-31T06:11:51;100343.91;;;14.46;60.71
20656;BME280;10487;53.320;8.672;2023-07-31T06:14:53;100351.53;;;14.51;60.81
20656;BME280;10487;53.320;8.672;2023-07-31T06:17:55;100345.81;;;14.63;60.85
20656;BME280;10487;53.320;8.672;2023-07-31T06:20:57;100346.78;;;14.72;60.66
20656;BME280;10487;53.320;8.672;2023-07-31T06:23:59;100351.59;;;14.68;60.39
20656;BME280;10487;53.320;8.672;2023-07-31T06:27:01;100339.75;;;14.61;60.58
20656;BME280;10487;53.320;8.672;2023-07-31T06:30:06;100336.66;;;14.56;60.60
20656;BME280;10487;53.320;8.672;2023-07-31T06:33:08;100332.03;;;14.49;60.53
20656;BME280;10487;53.320;8.672;2023-07-31T06:36:10;100329.66;;;14.46;60.61
20656;BME280;10487;53.320;8.672;2023-07-31T06:39:12;100327.41;;;14.41;60.75
20656;BME280;10487;53.320;8.672;2023-07-31T06:42:14;100330.25;;;14.40;60.76
20656;BME280;10487;53.320;8.672;2023-07-31T06:45:16;100338.59;;;14.36;60.68
20656;BME280;10487;53.320;8.672;2023-07-31T06:48:18;100338.84;;;14.33;60.74
20656;BME280;10487;53.320;8.672;2023-07-31T06:51:20;100330.78;;;14.33;60.79
20656;BME280;10487;53.320;8.672;2023-07-31T06:54:21;100332.78;;;14.41;61.07
20656;BME280;10487;53.320;8.672;2023-07-31T06:57:23;100334.16;;;14.45;60.82
20656;BME280;10487;53.320;8.672;2023-07-31T07:00:25;100327.97;;;14.45;61.02
20656;BME280;10487;53.320;8.672;2023-07-31T07:03:27;100311.88;;;14.45;60.89
20656;BME280;10487;53.320;8.672;2023-07-31T07:06:29;100314.56;;;14.45;60.88
20656;BME280;10487;53.320;8.672;2023-07-31T07:09:30;100313.53;;;14.46;60.87
20656;BME280;10487;53.320;8.672;2023-07-31T07:12:33;100311.88;;;14.45;60.87
20656;BME280;10487;53.320;8.672;2023-07-31T07:15:34;100318.06;;;14.45;60.89
20656;BME280;10487;53.320;8.672;2023-07-31T07:18:36;100316.22;;;14.46;60.86
20656;BME280;10487;53.320;8.672;2023-07-31T07:21:47;100311.53;;;14.48;60.82
20656;BME280;10487;53.320;8.672;2023-07-31T07:24:49;100319.47;;;14.49;61.02
20656;BME280;10487;53.320;8.672;2023-07-31T07:27:50;100317.47;;;14.51;60.92
20656;BME280;10487;53.320;8.672;2023-07-31T07:30:52;100309.13;;;14.54;60.76
20656;BME280;10487;53.320;8.672;2023-07-31T07:33:57;100304.47;;;14.56;61.01
20656;BME280;10487;53.320;8.672;2023-07-31T07:36:59;100303.31;;;14.59;61.00
20656;BME280;10487;53.320;8.672;2023-07-31T07:40:01;100296.25;;;14.58;60.93
20656;BME280;10487;53.320;8.672;2023-07-31T07:43:02;100305.16;;;14.58;60.84
20656;BME280;10487;53.320;8.672;2023-07-31T07:46:04;100295.25;;;14.59;60.96
20656;BME280;10487;53.320;8.672;2023-07-31T07:49:06;100292.88;;;14.56;61.08
20656;BME280;10487;53.320;8.672;2023-07-31T07:52:08;100291.19;;;14.55;60.96
20656;BME280;10487;53.320;8.672;2023-07-31T07:55:10;100286.66;;;14.55;60.97
20656;BME280;10487;53.320;8.672;2023-07-31T07:58:11;100287.50;;;14.56;60.91
20656;BME280;10487;53.320;8.672;2023-07-31T08:01:13;100284.81;;;14.56;61.12
20656;BME280;10487;53.320;8.672;2023-07-31T08:04:15;100284.69;;;14.57;61.08
20656;BME280;10487;53.320;8.672;2023-07-31T08:07:16;100282.69;;;14.59;61.04
20656;BME280;10487;53.320;8.672;2023-07-31T08:10:18;100272.94;;;14.58;61.07
20656;BME280;10487;53.320;8.672;2023-07-31T08:13:20;100268.41;;;14.59;61.14
20656;BME280;10487;53.320;8.672;2023-07-31T08:16:22;100258.38;;;14.61;61.02
20656;BME280;10487;53.320;8.672;2023-07-31T08:19:23;100261.06;;;14.61;61.18
20656;BME280;10487;53.320;8.672;2023-07-31T08:22:25;100263.59;;;14.62;61.04
20656;BME280;10487;53.320;8.672;2023-07-31T08:25:27;100258.91;;;14.64;61.11
20656;BME280;10487;53.320;8.672;2023-07-31T08:28:29;100251.56;;;14.66;61.05
20656;BME280;10487;53.320;8.672;2023-07-31T08:31:30;100254.25;;;14.66;61.26
20656;BME280;10487;53.320;8.672;2023-07-31T08:34:32;100246.88;;;14.68;61.18
20656;BME280;10487;53.320;8.672;2023-07-31T08:37:34;100237.84;;;14.69;61.13
20656;BME280;10487;53.320;8.672;2023-07-31T08:40:36;100244.75;;;14.72;61.25
20656;BME280;10487;53.320;8.672;2023-07-31T08:43:39;100235.38;;;14.76;61.33
20656;BME280;10487;53.320;8.672;2023-07-31T08:46:42;100232.41;;;14.79;61.18
20656;BME280;10487;53.320;8.672;2023-07-31T08:49:46;100229.53;;;14.80;61.05
20656;BME280;10487;53.320;8.672;2023-07-31T08:52:50;100234.22;;;14.78;61.19
20656;BME280;10487;53.320;8.672;2023-07-31T08:55:52;100236.06;;;14.78;61.29
20656;BME280;10487;53.320;8.672;2023-07-31T08:58:56;100233.25;;;14.79;61.10
20656;BME280;10487;53.320;8.672;2023-07-31T09:02:05;100236.75;;;14.80;61.34
20656;BME280;10487;53.320;8.672;2023-07-31T09:05:07;100241.31;;;14.79;61.26
20656;BME280;10487;53.320;8.672;2023-07-31T09:08:15;100228.69;;;14.80;61.24
20656;BME280;10487;53.320;8.672;2023-07-31T09:11:21;100234.06;;;14.80;61.29
20656;BME280;10487;53.320;8.672;2023-07-31T09:14:24;100235.94;;;14.79;61.47
20656;BME280;10487;53.320;8.672;2023-07-31T09:17:31;100230.41;;;14.81;61.23
20656;BME280;10487;53.320;8.672;2023-07-31T09:20:33;100233.06;;;14.81;61.20
20656;BME280;10487;53.320;8.672;2023-07-31T09:23:46;100226.72;;;14.82;61.27
20656;BME280;10487;53.320;8.672;2023-07-31T09:26:54;100219.47;;;14.82;61.40
20656;BME280;10487;53.320;8.672;2023-07-31T09:30:00;100230.09;;;14.84;61.55
20656;BME280;10487;53.320;8.672;2023-07-31T09:33:04;100222.03;;;14.84;61.50
20656;BME280;10487;53.320;8.672;2023-07-31T09:36:07;100221.19;;;14.83;61.51
20656;BME280;10487;53.320;8.672;2023-07-31T09:39:10;100224.56;;;14.85;61.40
20656;BME280;10487;53.320;8.672;2023-07-31T09:42:12;100212.97;;;14.85;61.48
20656;BME280;10487;53.320;8.672;2023-07-31T09:45:14;100212.16;;;14.84;61.58
20656;BME280;10487;53.320;8.672;2023-07-31T09:48:25;100212.97;;;14.85;61.65
20656;BME280;10487;53.320;8.672;2023-07-31T09:51:30;100209.28;;;14.86;61.56
20656;BME280;10487;53.320;8.672;2023-07-31T09:54:32;100204.47;;;14.89;61.46
20656;BME280;10487;53.320;8.672;2023-07-31T09:57:34;100197.94;;;14.92;61.37
20656;BME280;10487;53.320;8.672;2023-07-31T10:00:38;100189.56;;;14.95;61.55
20656;BME280;10487;53.320;8.672;2023-07-31T10:03:40;100180.34;;;14.97;61.31
20656;BME280;10487;53.320;8.672;2023-07-31T10:06:43;100180.22;;;14.99;61.57
20656;BME280;10487;53.320;8.672;2023-07-31T10:09:48;100173.81;;;15.00;61.70
20656;BME280;10487;53.320;8.672;2023-07-31T10:12:52;100179.06;;;15.01;61.63
20656;BME280;10487;53.320;8.672;2023-07-31T10:15:58;100171.81;;;15.02;61.55
20656;BME280;10487;53.320;8.672;2023-07-31T10:19:01;100169.84;;;15.04;61.73
20656;BME280;10487;53.320;8.672;2023-07-31T10:22:04;100169.69;;;15.06;61.66
20656;BME280;10487;53.320;8.672;2023-07-31T10:25:08;100162.31;;;15.08;61.64
20656;BME280;10487;53.320;8.672;2023-07-31T10:28:10;100164.13;;;15.07;61.68
20656;BME280;10487;53.320;8.672;2023-07-31T10:31:13;100159.63;;;15.08;61.75
20656;BME280;10487;53.320;8.672;2023-07-31T10:34:15;100158.63;;;15.09;61.92
20656;BME280;10487;53.320;8.672;2023-07-31T10:37:31;100160.16;;;15.11;61.71
20656;BME280;10487;53.320;8.672;2023-07-31T10:40:38;100153.78;;;15.12;61.76
20656;BME280;10487;53.320;8.672;2023-07-31T10:43:40;100137.50;;;15.14;61.73
20656;BME280;10487;53.320;8.672;2023-07-31T10:46:42;100150.66;;;15.17;61.74
20656;BME280;10487;53.320;8.672;2023-07-31T10:49:45;100143.25;;;15.19;61.79
20656;BME280;10487;53.320;8.672;2023-07-31T10:55:50;100131.22;;;15.23;61.93
20656;BME280;10487;53.320;8.672;2023-07-31T10:59:01;100135.44;;;15.25;61.67
20656;BME280;10487;53.320;8.672;2023-07-31T11:02:24;100129.22;;;15.25;61.85
20656;BME280;10487;53.320;8.672;2023-07-31T11:05:51;100130.06;;;15.25;61.80
20656;BME280;10487;53.320;8.672;2023-07-31T11:08:55;100136.97;;;15.28;61.83
20656;BME280;10487;53.320;8.672;2023-07-31T11:11:57;100125.91;;;15.31;61.90
20656;BME280;10487;53.320;8.672;2023-07-31T11:14:58;100113.16;;;15.33;61.70
20656;BME280;10487;53.320;8.672;2023-07-31T11:18:01;100120.06;;;15.35;62.12
20656;BME280;10487;53.320;8.672;2023-07-31T11:21:11;100117.19;;;15.37;61.77
20656;BME280;10487;53.320;8.672;2023-07-31T11:24:13;100116.88;;;15.40;61.93
20656;BME280;10487;53.320;8.672;2023-07-31T11:27:15;100120.09;;;15.43;61.85
20656;BME280;10487;53.320;8.672;2023-07-31T11:30:19;100120.78;;;15.45;62.05
20656;BME280;10487;53.320;8.672;2023-07-31T11:33:20;100116.78;;;15.49;62.04
20656;BME280;10487;53.320;8.672;2023-07-31T11:36:22;100114.78;;;15.51;62.06
20656;BME280;10487;53.320;8.672;2023-07-31T11:39:24;100109.91;;;15.55;62.21
20656;BME280;10487;53.320;8.672;2023-07-31T11:42:25;100110.44;;;15.58;62.06
20656;BME280;10487;53.320;8.672;2023-07-31T11:45:27;100117.34;;;15.61;62.11
20656;BME280;10487;53.320;8.672;2023-07-31T11:48:34;100113.50;;;15.63;61.99
20656;BME280;10487;53.320;8.672;2023-07-31T11:51:37;100102.41;;;15.66;62.06
20656;BME280;10487;53.320;8.672;2023-07-31T11:54:40;100103.09;;;15.69;62.09
20656;BME280;10487;53.320;8.672;2023-07-31T11:57:43;100107.47;;;15.70;61.97
20656;BME280;10487;53.320;8.672;2023-07-31T12:00:47;100102.75;;;15.72;62.13
20656;BME280;10487;53.320;8.672;2023-07-31T12:03:50;100098.22;;;15.72;62.03
20656;BME280;10487;53.320;8.672;2023-07-31T12:06:53;100099.09;;;15.73;62.14
20656;BME280;10487;53.320;8.672;2023-07-31T12:09:58;100095.41;;;15.74;62.01
20656;BME280;10487;53.320;8.672;2023-07-31T12:13:09;100086.97;;;15.77;62.25
20656;BME280;10487;53.320;8.672;2023-07-31T12:16:15;100088.69;;;15.78;62.24
20656;BME280;10487;53.320;8.672;2023-07-31T12:19:18;100078.78;;;15.78;62.12
20656;BME280;10487;53.320;8.672;2023-07-31T12:22:20;100086.19;;;15.84;62.37
20656;BME280;10487;53.320;8.672;2023-07-31T12:25:22;100083.16;;;15.87;62.15
20656;BME280;10487;53.320;8.672;2023-07-31T12:28:24;100085.84;;;15.87;62.34
20656;BME280;10487;53.320;8.672;2023-07-31T12:31:28;100070.38;;;15.89;62.26
20656;BME280;10487;53.320;8.672;2023-07-31T12:34:30;100076.63;;;15.90;62.43
20656;BME280;10487;53.320;8.672;2023-07-31T12:37:33;100066.72;;;15.90;62.15
20656;BME280;10487;53.320;8.672;2023-07-31T12:40:37;100061.00;;;15.93;62.41
20656;BME280;10487;53.320;8.672;2023-07-31T12:43:42;100056.13;;;15.97;62.54
20656;BME280;10487;53.320;8.672;2023-07-31T12:46:44;100050.41;;;16.00;62.46
20656;BME280;10487;53.320;8.672;2023-07-31T12:49:46;100045.38;;;16.05;62.38
20656;BME280;10487;53.320;8.672;2023-07-31T12:52:47;100042.41;;;16.08;62.41
20656;BME280;10487;53.320;8.672;2023-07-31T12:55:50;100036.84;;;16.09;62.54
20656;BME280;10487;53.320;8.672;2023-07-31T12:58:51;100047.47;;;16.11;62.46
20656;BME280;10487;53.320;8.672;2023-07-31T13:01:53;100039.22;;;16.12;62.37
20656;BME280;10487;53.320;8.672;2023-07-31T13:04:55;100053.53;;;16.13;62.58
20656;BME280;10487;53.320;8.672;2023-07-31T13:07:57;100044.44;;;16.14;62.67
20656;BME280;10487;53.320;8.672;2023-07-31T13:10:59;100028.13;;;16.15;62.63
20656;BME280;10487;53.320;8.672;2023-07-31T13:14:01;100033.34;;;16.17;62.23
20656;BME280;10487;53.320;8.672;2023-07-31T13:17:03;100028.63;;;16.19;62.28
20656;BME280;10487;53.320;8.672;2023-07-31T13:20:05;100034.72;;;16.21;62.45
20656;BME280;10487;53.320;8.672;2023-07-31T13:23:07;100039.91;;;16.22;62.64
20656;BME280;10487;53.320;8.672;2023-07-31T13:26:08;100035.53;;;16.21;62.75
20656;BME280;10487;53.320;8.672;2023-07-31T13:29:10;100034.53;;;16.22;62.53
20656;BME280;10487;53.320;8.672;2023-07-31T13:32:12;100030.13;;;16.21;62.68
20656;BME280;10487;53.320;8.672;2023-07-31T13:35:14;100035.53;;;16.21;62.77
20656;BME280;10487;53.320;8.672;2023-07-31T13:38:15;100032.81;;;16.21;62.65
20656;BME280;10487;53.320;8.672;2023-07-31T13:41:17;100032.00;;;16.21;62.56
20656;BME280;10487;53.320;8.672;2023-07-31T13:44:19;100021.25;;;16.21;62.86
20656;BME280;10487;53.320;8.672;2023-07-31T13:47:20;100024.09;;;16.19;62.44
20656;BME280;10487;53.320;8.672;2023-07-31T13:50:22;100012.84;;;16.16;62.61
20656;BME280;10487;53.320;8.672;2023-07-31T13:53:24;100005.75;;;16.15;62.95
20656;BME280;10487;53.320;8.672;2023-07-31T13:56:26;99995.00;;;16.15;62.64
20656;BME280;10487;53.320;8.672;2023-07-31T13:59:28;99993.81;;;16.17;62.81
20656;BME280;10487;53.320;8.672;2023-07-31T14:02:29;99988.25;;;16.19;62.59
20656;BME280;10487;53.320;8.672;2023-07-31T14:05:31;99972.81;;;16.21;62.79
20656;BME280;10487;53.320;8.672;2023-07-31T14:08:33;99979.84;;;16.22;62.96
20656;BME280;10487;53.320;8.672;2023-07-31T14:11:34;99978.00;;;16.22;63.05
20656;BME280;10487;53.320;8.672;2023-07-31T14:14:36;99966.41;;;16.22;62.82
20656;BME280;10487;53.320;8.672;2023-07-31T14:17:38;99968.94;;;16.23;62.81
20656;BME280;10487;53.320;8.672;2023-07-31T14:20:41;99969.44;;;16.27;62.85
20656;BME280;10487;53.320;8.672;2023-07-31T14:23:42;99972.97;;;16.27;62.80
20656;BME280;10487;53.320;8.672;2023-07-31T14:26:44;99983.56;;;16.29;62.88
20656;BME280;10487;53.320;8.672;2023-07-31T14:29:46;99995.69;;;16.33;62.80
20656;BME280;10487;53.320;8.672;2023-07-31T14:32:48;99996.16;;;16.37;62.85
20656;BME280;10487;53.320;8.672;2023-07-31T14:35:50;99993.34;;;16.38;62.63
20656;BME280;10487;53.320;8.672;2023-07-31T14:38:51;99999.38;;;16.40;62.80
20656;BME280;10487;53.320;8.672;2023-07-31T14:41:53;100014.34;;;16.43;63.06
20656;BME280;10487;53.320;8.672;2023-07-31T14:44:55;100001.91;;;16.42;62.73
20656;BME280;10487;53.320;8.672;2023-07-31T14:47:56;100035.22;;;16.41;62.79
20656;BME280;10487;53.320;8.672;2023-07-31T14:50:58;100041.44;;;16.41;63.12
20656;BME280;10487;53.320;8.672;2023-07-31T14:54:00;100047.66;;;16.42;62.84
20656;BME280;10487;53.320;8.672;2023-07-31T14:57:02;100030.84;;;16.40;63.15
20656;BME280;10487;53.320;8.672;2023-07-31T15:00:04;100032.88;;;16.38;62.90
20656;BME280;10487;53.320;8.672;2023-07-31T15:03:09;100026.63;;;16.37;63.02
20656;BME280;10487;53.320;8.672;2023-07-31T15:06:10;100027.47;;;16.38;63.03
20656;BME280;10487;53.320;8.672;2023-07-31T15:09:14;100023.94;;;16.37;62.85
20656;BME280;10487;53.320;8.672;2023-07-31T15:12:16;100011.47;;;16.36;63.18
20656;BME280;10487;53.320;8.672;2023-07-31T15:15:18;100016.72;;;16.38;62.81
20656;BME280;10487;53.320;8.672;2023-07-31T15:18:20;100010.47;;;16.37;63.21
20656;BME280;10487;53.320;8.672;2023-07-31T15:21:22;100011.81;;;16.41;63.29
20656;BME280;10487;53.320;8.672;2023-07-31T15:24:23;100013.31;;;16.44;62.79
20656;BME280;10487;53.320;8.672;2023-07-31T15:27:25;100025.28;;;16.49;63.16
20656;BME280;10487;53.320;8.672;2023-07-31T15:30:27;100023.13;;;16.53;63.18
20656;BME280;10487;53.320;8.672;2023-07-31T15:33:30;100022.59;;;16.57;63.16
20656;BME280;10487;53.320;8.672;2023-07-31T15:36:32;100019.41;;;16.62;62.91
20656;BME280;10487;53.320;8.672;2023-07-31T15:39:34;100028.81;;;16.66;62.95
20656;BME280;10487;53.320;8.672;2023-07-31T15:42:36;100029.16;;;16.71;63.22
20656;BME280;10487;53.320;8.672;2023-07-31T15:45:41;100023.44;;;16.74;62.94
20656;BME280;10487;53.320;8.672;2023-07-31T15:48:43;100017.69;;;16.77;63.01
20656;BME280;10487;53.320;8.672;2023-07-31T15:51:45;100016.53;;;16.79;62.96
20656;BME280;10487;53.320;8.672;2023-07-31T15:54:46;100011.81;;;16.81;63.14
20656;BME280;10487;53.320;8.672;2023-07-31T15:57:48;100016.84;;;16.84;63.06
20656;BME280;10487;53.320;8.672;2023-07-31T16:00:50;100016.56;;;16.87;63.22
20656;BME280;10487;53.320;8.672;2023-07-31T16:03:51;100013.34;;;16.92;63.36